sensor_id;sensor_type;location;lat;lon;timestamp;P1;durP1;ratioP1;P2;durP2;ratioP2
16669;SDS011;8448;52.034;5.158;2022-11-15T00:02:41;46.00;;;22.50;;
16669;SDS011;8448;52.034;5.158;2022-11-15T00:05:27;49.97;;;24.20;;
16669;SDS011;8448;52.034;5.158;2022-11-15T00:08:14;52.00;;;24.13;;
16669;SDS011;8448;52.034;5.158;2022-11-15T00:11:00;44.63;;;22.93;;
16669;SDS011;8448;52.034;5.158;2022-11-15T00:13:47;51.27;;;24.77;;
16669;SDS011;8448;52.034;5.158;2022-11-15T00:16:33;50.20;;;23.30;;
16669;SDS011;8448;52.034;5.158;2022-11-15T00:19:19;56.17;;;24.87;;
16669;SDS011;8448;52.034;5.158;2022-11-15T00:22:05;52.13;;;24.93;;
16669;SDS011;8448;52.034;5.158;2022-11-15T00:24:52;55.20;;;25.50;;
16669;SDS011;8448;52.034;5.158;2022-11-15T00:27:38;59.00;;;27.33;;
16669;SDS011;8448;52.034;5.158;2022-11-15T00:30:24;55.60;;;25.73;;
16669;SDS011;8448;52.034;5.158;2022-11-15T00:33:10;60.40;;;25.87;;
16669;SDS011;8448;52.034;5.158;2022-11-15T00:36:00;63.43;;;27.33;;
16669;SDS011;8448;52.034;5.158;2022-11-15T00:38:47;64.83;;;26.57;;
16669;SDS011;8448;52.034;5.158;2022-11-15T00:41:35;61.30;;;26.63;;
16669;SDS011;8448;52.034;5.158;2022-11-15T00:44:21;58.50;;;27.53;;
16669;SDS011;8448;52.034;5.158;2022-11-15T00:47:07;64.33;;;27.77;;
16669;SDS011;8448;52.034;5.158;2022-11-15T00:49:53;68.10;;;27.63;;
16669;SDS011;8448;52.034;5.158;2022-11-15T00:52:39;64.07;;;27.13;;
16669;SDS011;8448;52.034;5.158;2022-11-15T00:55:25;68.67;;;28.23;;
16669;SDS011;8448;52.034;5.158;2022-11-15T00:58:13;61.27;;;28.07;;
16669;SDS011;8448;52.034;5.158;2022-11-15T01:01:05;73.30;;;29.30;;
16669;SDS011;8448;52.034;5.158;2022-11-15T01:03:51;70.03;;;29.03;;
16669;SDS011;8448;52.034;5.158;2022-11-15T01:06:37;65.43;;;28.73;;
16669;SDS011;8448;52.034;5.158;2022-11-15T01:09:23;62.77;;;28.20;;
16669;SDS011;8448;52.034;5.158;2022-11-15T01:12:09;69.77;;;27.93;;
16669;SDS011;8448;52.034;5.158;2022-11-15T01:14:56;63.47;;;28.47;;
16669;SDS011;8448;52.034;5.158;2022-11-15T01:17:42;63.53;;;27.77;;
16669;SDS011;8448;52.034;5.158;2022-11-15T01:20:28;64.30;;;28.40;;
16669;SDS011;8448;52.034;5.158;2022-11-15T01:23:14;70.27;;;28.20;;
16669;SDS011;8448;52.034;5.158;2022-11-15T01:26:00;63.97;;;28.17;;
16669;SDS011;8448;52.034;5.158;2022-11-15T01:28:47;68.10;;;29.27;;
16669;SDS011;8448;52.034;5.158;2022-11-15T01:31:34;78.63;;;29.50;;
16669;SDS011;8448;52.034;5.158;2022-11-15T01:34:20;61.93;;;28.83;;
16669;SDS011;8448;52.034;5.158;2022-11-15T01:37:06;65.23;;;28.50;;
16669;SDS011;8448;52.034;5.158;2022-11-15T01:39:52;70.50;;;29.10;;
16669;SDS011;8448;52.034;5.158;2022-11-15T01:42:38;67.07;;;28.03;;
16669;SDS011;8448;52.034;5.158;2022-11-15T01:45:24;65.17;;;28.77;;
16669;SDS011;8448;52.034;5.158;2022-11-15T01:48:11;68.63;;;29.97;;
16669;SDS011;8448;52.034;5.158;2022-11-15T01:50:58;68.90;;;29.57;;
16669;SDS011;8448;52.034;5.158;2022-11-15T01:53:45;75.07;;;31.00;;
16669;SDS011;8448;52.034;5.158;2022-11-15T01:56:36;62.03;;;28.50;;
16669;SDS011;8448;52.034;5.158;2022-11-15T01:59:25;62.00;;;28.80;;
16669;SDS011;8448;52.034;5.158;2022-11-15T02:02:11;65.53;;;28.90;;
16669;SDS011;8448;52.034;5.158;2022-11-15T02:04:59;70.37;;;30.17;;
16669;SDS011;8448;52.034;5.158;2022-11-15T02:07:45;66.20;;;28.87;;
16669;SDS011;8448;52.034;5.158;2022-11-15T02:10:31;71.43;;;31.07;;
16669;SDS011;8448;52.034;5.158;2022-11-15T02:13:17;67.63;;;30.40;;
16669;SDS011;8448;52.034;5.158;2022-11-15T02:16:04;61.47;;;29.57;;
16669;SDS011;8448;52.034;5.158;2022-11-15T02:18:59;64.63;;;30.83;;
16669;SDS011;8448;52.034;5.158;2022-11-15T02:21:49;66.27;;;29.40;;
16669;SDS011;8448;52.034;5.158;2022-11-15T02:24:55;67.33;;;30.83;;
16669;SDS011;8448;52.034;5.158;2022-11-15T02:27:53;65.90;;;30.57;;
16669;SDS011;8448;52.034;5.158;2022-11-15T02:31:03;59.27;;;29.60;;
16669;SDS011;8448;52.034;5.158;2022-11-15T02:33:53;60.97;;;29.10;;
16669;SDS011;8448;52.034;5.158;2022-11-15T02:36:42;58.00;;;28.80;;
16669;SDS011;8448;52.034;5.158;2022-11-15T02:39:34;61.87;;;30.13;;
16669;SDS011;8448;52.034;5.158;2022-11-15T02:42:23;57.93;;;28.73;;
16669;SDS011;8448;52.034;5.158;2022-11-15T02:45:29;58.53;;;29.97;;
16669;SDS011;8448;52.034;5.158;2022-11-15T02:48:18;56.00;;;29.20;;
16669;SDS011;8448;52.034;5.158;2022-11-15T02:51:05;58.57;;;29.77;;
16669;SDS011;8448;52.034;5.158;2022-11-15T02:53:51;58.23;;;29.40;;
16669;SDS011;8448;52.034;5.158;2022-11-15T02:56:37;65.03;;;30.43;;
16669;SDS011;8448;52.034;5.158;2022-11-15T02:59:31;59.90;;;30.83;;
16669;SDS011;8448;52.034;5.158;2022-11-15T03:02:36;54.93;;;31.00;;
16669;SDS011;8448;52.034;5.158;2022-11-15T03:05:33;58.83;;;29.77;;
16669;SDS011;8448;52.034;5.158;2022-11-15T03:08:22;58.33;;;29.47;;
16669;SDS011;8448;52.034;5.158;2022-11-15T03:11:14;57.37;;;30.23;;
16669;SDS011;8448;52.034;5.158;2022-11-15T03:14:02;62.87;;;31.60;;
16669;SDS011;8448;52.034;5.158;2022-11-15T03:16:56;58.53;;;30.67;;
16669;SDS011;8448;52.034;5.158;2022-11-15T03:19:46;59.83;;;31.30;;
16669;SDS011;8448;52.034;5.158;2022-11-15T03:22:36;61.77;;;30.80;;
16669;SDS011;8448;52.034;5.158;2022-11-15T03:25:24;59.30;;;30.17;;
16669;SDS011;8448;52.034;5.158;2022-11-15T03:28:13;58.40;;;30.53;;
16669;SDS011;8448;52.034;5.158;2022-11-15T03:31:01;57.33;;;30.83;;
16669;SDS011;8448;52.034;5.158;2022-11-15T03:34:08;57.13;;;28.67;;
16669;SDS011;8448;52.034;5.158;2022-11-15T03:36:57;56.80;;;30.90;;
16669;SDS011;8448;52.034;5.158;2022-11-15T03:39:44;54.03;;;28.87;;
16669;SDS011;8448;52.034;5.158;2022-11-15T03:42:31;51.23;;;29.10;;
16669;SDS011;8448;52.034;5.158;2022-11-15T03:45:23;54.33;;;29.77;;
16669;SDS011;8448;52.034;5.158;2022-11-15T03:48:12;52.43;;;28.10;;
16669;SDS011;8448;52.034;5.158;2022-11-15T03:51:01;51.50;;;28.83;;
16669;SDS011;8448;52.034;5.158;2022-11-15T03:53:48;57.50;;;29.53;;
16669;SDS011;8448;52.034;5.158;2022-11-15T03:56:35;51.50;;;29.23;;
16669;SDS011;8448;52.034;5.158;2022-11-15T03:59:21;52.63;;;29.27;;
16669;SDS011;8448;52.034;5.158;2022-11-15T04:02:07;58.33;;;29.70;;
16669;SDS011;8448;52.034;5.158;2022-11-15T04:04:53;58.30;;;30.03;;
16669;SDS011;8448;52.034;5.158;2022-11-15T04:07:39;54.40;;;29.47;;
16669;SDS011;8448;52.034;5.158;2022-11-15T04:10:25;54.87;;;29.53;;
16669;SDS011;8448;52.034;5.158;2022-11-15T04:13:12;54.77;;;29.67;;
16669;SDS011;8448;52.034;5.158;2022-11-15T04:15:58;51.10;;;28.70;;
16669;SDS011;8448;52.034;5.158;2022-11-15T04:18:44;50.80;;;28.83;;
16669;SDS011;8448;52.034;5.158;2022-11-15T04:21:51;45.27;;;27.07;;
16669;SDS011;8448;52.034;5.158;2022-11-15T04:24:56;46.97;;;27.77;;
16669;SDS011;8448;52.034;5.158;2022-11-15T04:27:42;51.70;;;28.23;;
16669;SDS011;8448;52.034;5.158;2022-11-15T04:30:29;48.80;;;27.53;;
16669;SDS011;8448;52.034;5.158;2022-11-15T04:33:15;46.90;;;28.57;;
16669;SDS011;8448;52.034;5.158;2022-11-15T04:36:01;48.67;;;27.47;;
16669;SDS011;8448;52.034;5.158;2022-11-15T04:39:04;46.40;;;27.30;;
16669;SDS011;8448;52.034;5.158;2022-11-15T04:41:50;49.17;;;27.23;;
16669;SDS011;8448;52.034;5.158;2022-11-15T04:44:36;46.93;;;27.23;;
16669;SDS011;8448;52.034;5.158;2022-11-15T04:47:23;44.83;;;27.77;;
16669;SDS011;8448;52.034;5.158;2022-11-15T04:50:09;48.33;;;26.67;;
16669;SDS011;8448;52.034;5.158;2022-11-15T04:52:57;47.40;;;25.70;;
16669;SDS011;8448;52.034;5.158;2022-11-15T04:55:44;49.40;;;27.13;;
16669;SDS011;8448;52.034;5.158;2022-11-15T04:58:30;44.87;;;26.50;;
16669;SDS011;8448;52.034;5.158;2022-11-15T05:01:16;46.37;;;26.93;;
16669;SDS011;8448;52.034;5.158;2022-11-15T05:04:03;48.17;;;27.17;;
16669;SDS011;8448;52.034;5.158;2022-11-15T05:07:04;44.20;;;26.23;;
16669;SDS011;8448;52.034;5.158;2022-11-15T05:09:50;44.70;;;25.87;;
16669;SDS011;8448;52.034;5.158;2022-11-15T05:12:36;46.17;;;25.93;;
16669;SDS011;8448;52.034;5.158;2022-11-15T05:15:22;46.07;;;26.07;;
16669;SDS011;8448;52.034;5.158;2022-11-15T05:18:08;45.13;;;25.90;;
16669;SDS011;8448;52.034;5.158;2022-11-15T05:20:55;45.20;;;24.73;;
16669;SDS011;8448;52.034;5.158;2022-11-15T05:23:47;45.63;;;25.53;;
16669;SDS011;8448;52.034;5.158;2022-11-15T05:26:33;42.10;;;25.20;;
16669;SDS011;8448;52.034;5.158;2022-11-15T05:29:19;39.77;;;24.17;;
16669;SDS011;8448;52.034;5.158;2022-11-15T05:32:05;44.87;;;25.07;;
16669;SDS011;8448;52.034;5.158;2022-11-15T05:34:51;40.43;;;24.90;;
16669;SDS011;8448;52.034;5.158;2022-11-15T05:37:39;44.70;;;25.07;;
16669;SDS011;8448;52.034;5.158;2022-11-15T05:40:26;42.30;;;24.20;;
16669;SDS011;8448;52.034;5.158;2022-11-15T05:43:12;40.07;;;23.67;;
16669;SDS011;8448;52.034;5.158;2022-11-15T05:45:58;41.63;;;24.70;;
16669;SDS011;8448;52.034;5.158;2022-11-15T05:48:45;38.80;;;22.93;;
16669;SDS011;8448;52.034;5.158;2022-11-15T05:51:32;40.63;;;24.77;;
16669;SDS011;8448;52.034;5.158;2022-11-15T05:54:20;40.27;;;24.17;;
16669;SDS011;8448;52.034;5.158;2022-11-15T05:57:06;41.77;;;25.40;;
16669;SDS011;8448;52.034;5.158;2022-11-15T05:59:52;38.47;;;24.10;;
16669;SDS011;8448;52.034;5.158;2022-11-15T06:02:39;42.80;;;23.90;;
16669;SDS011;8448;52.034;5.158;2022-11-15T06:05:25;46.73;;;24.37;;
16669;SDS011;8448;52.034;5.158;2022-11-15T06:08:11;40.90;;;24.53;;
16669;SDS011;8448;52.034;5.158;2022-11-15T06:11:03;41.73;;;24.43;;
16669;SDS011;8448;52.034;5.158;2022-11-15T06:13:49;40.43;;;24.83;;
16669;SDS011;8448;52.034;5.158;2022-11-15T06:16:35;42.80;;;24.60;;
16669;SDS011;8448;52.034;5.158;2022-11-15T06:19:21;44.83;;;26.00;;
16669;SDS011;8448;52.034;5.158;2022-11-15T06:22:07;44.33;;;24.43;;
16669;SDS011;8448;52.034;5.158;2022-11-15T06:24:53;42.73;;;25.03;;
16669;SDS011;8448;52.034;5.158;2022-11-15T06:27:43;41.03;;;24.93;;
16669;SDS011;8448;52.034;5.158;2022-11-15T06:30:29;40.20;;;24.47;;
16669;SDS011;8448;52.034;5.158;2022-11-15T06:33:15;42.03;;;23.90;;
16669;SDS011;8448;52.034;5.158;2022-11-15T06:36:01;43.37;;;25.07;;
16669;SDS011;8448;52.034;5.158;2022-11-15T06:38:47;40.70;;;24.60;;
16669;SDS011;8448;52.034;5.158;2022-11-15T06:41:34;43.47;;;24.90;;
16669;SDS011;8448;52.034;5.158;2022-11-15T06:44:21;41.13;;;24.17;;
16669;SDS011;8448;52.034;5.158;2022-11-15T06:47:07;40.07;;;24.40;;
16669;SDS011;8448;52.034;5.158;2022-11-15T06:49:53;42.33;;;24.40;;
16669;SDS011;8448;52.034;5.158;2022-11-15T06:52:39;39.50;;;24.17;;
16669;SDS011;8448;52.034;5.158;2022-11-15T06:55:25;39.50;;;23.87;;
16669;SDS011;8448;52.034;5.158;2022-11-15T06:58:11;39.67;;;23.00;;
16669;SDS011;8448;52.034;5.158;2022-11-15T07:00:59;42.07;;;24.03;;
16669;SDS011;8448;52.034;5.158;2022-11-15T07:03:45;43.97;;;23.03;;
16669;SDS011;8448;52.034;5.158;2022-11-15T07:06:31;36.23;;;23.43;;
16669;SDS011;8448;52.034;5.158;2022-11-15T07:09:17;38.67;;;23.67;;
16669;SDS011;8448;52.034;5.158;2022-11-15T07:12:03;39.37;;;22.37;;
16669;SDS011;8448;52.034;5.158;2022-11-15T07:14:50;39.67;;;22.70;;
16669;SDS011;8448;52.034;5.158;2022-11-15T07:17:37;37.13;;;22.47;;
16669;SDS011;8448;52.034;5.158;2022-11-15T07:20:23;37.77;;;21.40;;
16669;SDS011;8448;52.034;5.158;2022-11-15T07:23:09;36.30;;;21.30;;
16669;SDS011;8448;52.034;5.158;2022-11-15T07:25:56;32.43;;;20.30;;
16669;SDS011;8448;52.034;5.158;2022-11-15T07:28:42;31.10;;;20.00;;
16669;SDS011;8448;52.034;5.158;2022-11-15T07:31:28;33.97;;;19.63;;
16669;SDS011;8448;52.034;5.158;2022-11-15T07:34:16;36.30;;;19.27;;
16669;SDS011;8448;52.034;5.158;2022-11-15T07:37:01;34.63;;;19.97;;
16669;SDS011;8448;52.034;5.158;2022-11-15T07:39:47;36.27;;;19.20;;
16669;SDS011;8448;52.034;5.158;2022-11-15T07:42:33;33.43;;;19.20;;
16669;SDS011;8448;52.034;5.158;2022-11-15T07:45:39;37.07;;;19.87;;
16669;SDS011;8448;52.034;5.158;2022-11-15T07:48:26;32.07;;;18.77;;
16669;SDS011;8448;52.034;5.158;2022-11-15T07:51:14;27.20;;;18.33;;
16669;SDS011;8448;52.034;5.158;2022-11-15T07:54:00;30.70;;;17.67;;
16669;SDS011;8448;52.034;5.158;2022-11-15T07:56:46;28.40;;;18.07;;
16669;SDS011;8448;52.034;5.158;2022-11-15T07:59:32;32.63;;;19.17;;
16669;SDS011;8448;52.034;5.158;2022-11-15T08:02:19;28.63;;;17.57;;
16669;SDS011;8448;52.034;5.158;2022-11-15T08:05:05;29.30;;;17.57;;
16669;SDS011;8448;52.034;5.158;2022-11-15T08:07:53;30.57;;;18.30;;
16669;SDS011;8448;52.034;5.158;2022-11-15T08:10:40;30.87;;;17.43;;
16669;SDS011;8448;52.034;5.158;2022-11-15T08:13:26;35.57;;;18.90;;
16669;SDS011;8448;52.034;5.158;2022-11-15T08:16:12;29.80;;;17.37;;
16669;SDS011;8448;52.034;5.158;2022-11-15T08:18:58;31.17;;;17.03;;
16669;SDS011;8448;52.034;5.158;2022-11-15T08:21:44;31.87;;;16.73;;
16669;SDS011;8448;52.034;5.158;2022-11-15T08:24:31;26.00;;;16.13;;
16669;SDS011;8448;52.034;5.158;2022-11-15T08:27:17;25.47;;;15.47;;
16669;SDS011;8448;52.034;5.158;2022-11-15T08:30:04;26.73;;;15.73;;
16669;SDS011;8448;52.034;5.158;2022-11-15T08:32:51;24.50;;;14.73;;
16669;SDS011;8448;52.034;5.158;2022-11-15T08:35:37;26.70;;;15.60;;
16669;SDS011;8448;52.034;5.158;2022-11-15T08:38:23;26.20;;;15.40;;
16669;SDS011;8448;52.034;5.158;2022-11-15T08:41:11;25.77;;;14.67;;
16669;SDS011;8448;52.034;5.158;2022-11-15T08:43:58;24.73;;;14.77;;
16669;SDS011;8448;52.034;5.158;2022-11-15T08:46:45;22.13;;;13.30;;
16669;SDS011;8448;52.034;5.158;2022-11-15T08:49:30;22.30;;;13.20;;
16669;SDS011;8448;52.034;5.158;2022-11-15T08:52:16;19.97;;;11.30;;
16669;SDS011;8448;52.034;5.158;2022-11-15T08:55:03;19.83;;;10.77;;
16669;SDS011;8448;52.034;5.158;2022-11-15T08:57:51;17.40;;;10.93;;
16669;SDS011;8448;52.034;5.158;2022-11-15T09:00:36;18.20;;;10.73;;
16669;SDS011;8448;52.034;5.158;2022-11-15T09:03:22;19.70;;;10.47;;
16669;SDS011;8448;52.034;5.158;2022-11-15T09:06:08;18.27;;;11.07;;
16669;SDS011;8448;52.034;5.158;2022-11-15T09:08:55;19.37;;;10.93;;
16669;SDS011;8448;52.034;5.158;2022-11-15T09:11:40;17.10;;;11.23;;
16669;SDS011;8448;52.034;5.158;2022-11-15T09:14:28;18.27;;;11.03;;
16669;SDS011;8448;52.034;5.158;2022-11-15T09:17:14;17.93;;;10.23;;
16669;SDS011;8448;52.034;5.158;2022-11-15T09:20:00;14.17;;;9.50;;
16669;SDS011;8448;52.034;5.158;2022-11-15T09:22:46;12.93;;;8.67;;
16669;SDS011;8448;52.034;5.158;2022-11-15T09:25:32;14.83;;;8.93;;
16669;SDS011;8448;52.034;5.158;2022-11-15T09:28:18;13.70;;;9.17;;
16669;SDS011;8448;52.034;5.158;2022-11-15T09:31:05;14.00;;;8.50;;
16669;SDS011;8448;52.034;5.158;2022-11-15T09:33:52;11.10;;;8.50;;
16669;SDS011;8448;52.034;5.158;2022-11-15T09:36:38;12.50;;;7.40;;
16669;SDS011;8448;52.034;5.158;2022-11-15T09:39:24;11.73;;;7.60;;
16669;SDS011;8448;52.034;5.158;2022-11-15T09:45:26;12.80;;;7.57;;
16669;SDS011;8448;52.034;5.158;2022-11-15T09:48:35;11.63;;;7.17;;
16669;SDS011;8448;52.034;5.158;2022-11-15T09:51:30;10.83;;;7.10;;
16669;SDS011;8448;52.034;5.158;2022-11-15T09:54:01;13.60;;;7.50;;
16669;SDS011;8448;52.034;5.158;2022-11-15T09:56:31;9.73;;;7.40;;
16669;SDS011;8448;52.034;5.158;2022-11-15T09:59:04;10.67;;;6.80;;
16669;SDS011;8448;52.034;5.158;2022-11-15T10:01:46;12.73;;;7.57;;
16669;SDS011;8448;52.034;5.158;2022-11-15T10:04:21;9.00;;;6.70;;
16669;SDS011;8448;52.034;5.158;2022-11-15T10:06:51;10.70;;;7.40;;
16669;SDS011;8448;52.034;5.158;2022-11-15T10:09:23;10.93;;;7.33;;
16669;SDS011;8448;52.034;5.158;2022-11-15T10:11:52;9.00;;;7.03;;
16669;SDS011;8448;52.034;5.158;2022-11-15T10:14:20;9.00;;;6.33;;
16669;SDS011;8448;52.034;5.158;2022-11-15T10:19:50;10.57;;;6.50;;
16669;SDS011;8448;52.034;5.158;2022-11-15T10:22:26;8.03;;;6.60;;
16669;SDS011;8448;52.034;5.158;2022-11-15T10:25:00;9.30;;;6.33;;
16669;SDS011;8448;52.034;5.158;2022-11-15T10:27:50;10.50;;;6.57;;
16669;SDS011;8448;52.034;5.158;2022-11-15T10:30:20;10.83;;;6.70;;
16669;SDS011;8448;52.034;5.158;2022-11-15T10:32:48;9.03;;;6.23;;
16669;SDS011;8448;52.034;5.158;2022-11-15T10:35:18;7.63;;;6.23;;
16669;SDS011;8448;52.034;5.158;2022-11-15T10:37:47;9.70;;;6.33;;
16669;SDS011;8448;52.034;5.158;2022-11-15T10:40:16;9.07;;;5.90;;
16669;SDS011;8448;52.034;5.158;2022-11-15T10:42:45;8.00;;;5.30;;
16669;SDS011;8448;52.034;5.158;2022-11-15T10:45:26;8.67;;;5.23;;
16669;SDS011;8448;52.034;5.158;2022-11-15T10:47:59;6.53;;;4.40;;
16669;SDS011;8448;52.034;5.158;2022-11-15T10:50:48;5.57;;;3.90;;
16669;SDS011;8448;52.034;5.158;2022-11-15T10:53:19;4.20;;;3.38;;
16669;SDS011;8448;52.034;5.158;2022-11-15T10:55:59;4.35;;;3.20;;
16669;SDS011;8448;52.034;5.158;2022-11-15T10:58:33;6.18;;;2.85;;
16669;SDS011;8448;52.034;5.158;2022-11-15T11:01:09;5.65;;;2.60;;
16669;SDS011;8448;52.034;5.158;2022-11-15T11:03:39;4.82;;;2.78;;
16669;SDS011;8448;52.034;5.158;2022-11-15T11:06:09;4.63;;;2.65;;
16669;SDS011;8448;52.034;5.158;2022-11-15T11:08:38;5.30;;;2.45;;
16669;SDS011;8448;52.034;5.158;2022-11-15T11:11:05;3.70;;;2.17;;
16669;SDS011;8448;52.034;5.158;2022-11-15T11:13:34;4.30;;;2.17;;
16669;SDS011;8448;52.034;5.158;2022-11-15T11:16:20;5.75;;;2.00;;
16669;SDS011;8448;52.034;5.158;2022-11-15T11:19:08;3.17;;;1.90;;
16669;SDS011;8448;52.034;5.158;2022-11-15T11:22:01;3.70;;;2.10;;
16669;SDS011;8448;52.034;5.158;2022-11-15T11:24:37;2.67;;;1.80;;
16669;SDS011;8448;52.034;5.158;2022-11-15T11:27:16;3.60;;;1.67;;
16669;SDS011;8448;52.034;5.158;2022-11-15T11:32:40;6.28;;;2.20;;
16669;SDS011;8448;52.034;5.158;2022-11-15T11:35:17;3.75;;;1.80;;
16669;SDS011;8448;52.034;5.158;2022-11-15T11:37:51;5.00;;;1.98;;
16669;SDS011;8448;52.034;5.158;2022-11-15T11:40:24;5.07;;;1.90;;
16669;SDS011;8448;52.034;5.158;2022-11-15T11:42:56;3.92;;;1.60;;
16669;SDS011;8448;52.034;5.158;2022-11-15T11:48:32;6.97;;;1.83;;
16669;SDS011;8448;52.034;5.158;2022-11-15T11:51:08;3.70;;;1.58;;
16669;SDS011;8448;52.034;5.158;2022-11-15T11:53:42;4.00;;;1.75;;
16669;SDS011;8448;52.034;5.158;2022-11-15T11:56:16;4.07;;;1.67;;
16669;SDS011;8448;52.034;5.158;2022-11-15T11:58:48;3.72;;;1.52;;
16669;SDS011;8448;52.034;5.158;2022-11-15T12:01:20;3.45;;;1.30;;
16669;SDS011;8448;52.034;5.158;2022-11-15T12:03:51;3.95;;;1.42;;
16669;SDS011;8448;52.034;5.158;2022-11-15T12:06:23;3.90;;;1.30;;
16669;SDS011;8448;52.034;5.158;2022-11-15T12:08:59;3.83;;;1.48;;
16669;SDS011;8448;52.034;5.158;2022-11-15T12:11:29;5.75;;;1.42;;
16669;SDS011;8448;52.034;5.158;2022-11-15T12:14:04;3.42;;;1.30;;
16669;SDS011;8448;52.034;5.158;2022-11-15T12:16:35;5.00;;;1.48;;
16669;SDS011;8448;52.034;5.158;2022-11-15T12:19:03;4.65;;;1.38;;
16669;SDS011;8448;52.034;5.158;2022-11-15T12:21:39;3.17;;;1.40;;
16669;SDS011;8448;52.034;5.158;2022-11-15T12:24:13;3.97;;;1.40;;
16669;SDS011;8448;52.034;5.158;2022-11-15T12:26:46;3.40;;;1.20;;
16669;SDS011;8448;52.034;5.158;2022-11-15T12:29:16;2.05;;;1.30;;
16669;SDS011;8448;52.034;5.158;2022-11-15T12:31:48;4.18;;;1.23;;
16669;SDS011;8448;52.034;5.158;2022-11-15T12:34:29;3.80;;;1.20;;
16669;SDS011;8448;52.034;5.158;2022-11-15T12:37:11;2.40;;;1.00;;
16669;SDS011;8448;52.034;5.158;2022-11-15T12:40:22;2.67;;;1.10;;
16669;SDS011;8448;52.034;5.158;2022-11-15T12:45:51;3.70;;;1.20;;
16669;SDS011;8448;52.034;5.158;2022-11-15T12:51:12;2.85;;;1.15;;
16669;SDS011;8448;52.034;5.158;2022-11-15T12:53:39;4.70;;;1.30;;
16669;SDS011;8448;52.034;5.158;2022-11-15T12:59:00;3.65;;;1.20;;
16669;SDS011;8448;52.034;5.158;2022-11-15T13:04:27;4.53;;;1.17;;
16669;SDS011;8448;52.034;5.158;2022-11-15T13:06:58;3.08;;;1.20;;
16669;SDS011;8448;52.034;5.158;2022-11-15T13:15:37;2.78;;;1.13;;
16669;SDS011;8448;52.034;5.158;2022-11-15T13:18:26;6.20;;;1.33;;
16669;SDS011;8448;52.034;5.158;2022-11-15T13:20:56;7.63;;;1.52;;
16669;SDS011;8448;52.034;5.158;2022-11-15T13:23:23;3.47;;;1.33;;
16669;SDS011;8448;52.034;5.158;2022-11-15T13:26:03;4.40;;;1.50;;
16669;SDS011;8448;52.034;5.158;2022-11-15T13:28:42;4.47;;;1.63;;
16669;SDS011;8448;52.034;5.158;2022-11-15T13:31:19;3.00;;;1.52;;
16669;SDS011;8448;52.034;5.158;2022-11-15T13:33:53;5.50;;;1.38;;
16669;SDS011;8448;52.034;5.158;2022-11-15T13:36:23;3.42;;;1.30;;
16669;SDS011;8448;52.034;5.158;2022-11-15T13:38:56;4.80;;;1.60;;
16669;SDS011;8448;52.034;5.158;2022-11-15T13:41:25;4.78;;;1.40;;
16669;SDS011;8448;52.034;5.158;2022-11-15T13:43:55;5.05;;;1.67;;
16669;SDS011;8448;52.034;5.158;2022-11-15T13:46:24;3.38;;;1.40;;
16669;SDS011;8448;52.034;5.158;2022-11-15T13:48:53;4.13;;;1.90;;
16669;SDS011;8448;52.034;5.158;2022-11-15T13:51:24;2.17;;;1.53;;
16669;SDS011;8448;52.034;5.158;2022-11-15T13:53:56;6.03;;;2.10;;
16669;SDS011;8448;52.034;5.158;2022-11-15T13:56:24;7.27;;;2.17;;
16669;SDS011;8448;52.034;5.158;2022-11-15T13:58:52;4.30;;;1.90;;
16669;SDS011;8448;52.034;5.158;2022-11-15T14:01:21;4.10;;;1.97;;
16669;SDS011;8448;52.034;5.158;2022-11-15T14:03:58;5.07;;;2.13;;
16669;SDS011;8448;52.034;5.158;2022-11-15T14:06:27;4.30;;;2.20;;
16669;SDS011;8448;52.034;5.158;2022-11-15T14:08:59;4.20;;;2.27;;
16669;SDS011;8448;52.034;5.158;2022-11-15T14:11:48;3.70;;;2.00;;
16669;SDS011;8448;52.034;5.158;2022-11-15T14:14:17;5.20;;;2.33;;
16669;SDS011;8448;52.034;5.158;2022-11-15T14:16:49;4.97;;;1.93;;
16669;SDS011;8448;52.034;5.158;2022-11-15T14:19:34;4.83;;;2.10;;
16669;SDS011;8448;52.034;5.158;2022-11-15T14:22:13;5.03;;;1.90;;
16669;SDS011;8448;52.034;5.158;2022-11-15T14:24:47;6.67;;;1.97;;
16669;SDS011;8448;52.034;5.158;2022-11-15T14:27:31;4.60;;;2.10;;
16669;SDS011;8448;52.034;5.158;2022-11-15T14:29:59;4.33;;;1.83;;
16669;SDS011;8448;52.034;5.158;2022-11-15T14:32:28;5.63;;;2.23;;
16669;SDS011;8448;52.034;5.158;2022-11-15T14:35:12;4.40;;;1.83;;
16669;SDS011;8448;52.034;5.158;2022-11-15T14:37:41;5.43;;;2.00;;
16669;SDS011;8448;52.034;5.158;2022-11-15T14:40:12;4.53;;;1.83;;
16669;SDS011;8448;52.034;5.158;2022-11-15T14:42:40;5.20;;;1.73;;
16669;SDS011;8448;52.034;5.158;2022-11-15T14:45:09;7.53;;;1.90;;
16669;SDS011;8448;52.034;5.158;2022-11-15T14:47:40;6.00;;;2.10;;
16669;SDS011;8448;52.034;5.158;2022-11-15T14:50:10;4.83;;;1.70;;
16669;SDS011;8448;52.034;5.158;2022-11-15T14:52:38;6.57;;;1.97;;
16669;SDS011;8448;52.034;5.158;2022-11-15T14:55:11;4.40;;;1.60;;
16669;SDS011;8448;52.034;5.158;2022-11-15T14:57:42;3.90;;;1.80;;
16669;SDS011;8448;52.034;5.158;2022-11-15T15:00:10;5.03;;;2.10;;
16669;SDS011;8448;52.034;5.158;2022-11-15T15:02:39;6.47;;;2.03;;
16669;SDS011;8448;52.034;5.158;2022-11-15T15:05:14;4.13;;;1.90;;
16669;SDS011;8448;52.034;5.158;2022-11-15T15:07:42;3.37;;;1.87;;
16669;SDS011;8448;52.034;5.158;2022-11-15T15:10:10;5.93;;;2.00;;
16669;SDS011;8448;52.034;5.158;2022-11-15T15:12:38;6.60;;;2.37;;
16669;SDS011;8448;52.034;5.158;2022-11-15T15:15:05;6.93;;;2.30;;
16669;SDS011;8448;52.034;5.158;2022-11-15T15:17:36;5.30;;;1.90;;
16669;SDS011;8448;52.034;5.158;2022-11-15T15:20:06;5.83;;;1.90;;
16669;SDS011;8448;52.034;5.158;2022-11-15T15:22:33;6.30;;;1.90;;
16669;SDS011;8448;52.034;5.158;2022-11-15T15:25:01;6.13;;;2.20;;
16669;SDS011;8448;52.034;5.158;2022-11-15T15:27:29;5.70;;;2.00;;
16669;SDS011;8448;52.034;5.158;2022-11-15T15:29:56;6.03;;;2.20;;
16669;SDS011;8448;52.034;5.158;2022-11-15T15:32:23;4.87;;;2.17;;
16669;SDS011;8448;52.034;5.158;2022-11-15T15:34:50;5.80;;;2.53;;
16669;SDS011;8448;52.034;5.158;2022-11-15T15:37:23;7.43;;;2.50;;
16669;SDS011;8448;52.034;5.158;2022-11-15T15:42:46;4.73;;;2.23;;
16669;SDS011;8448;52.034;5.158;2022-11-15T15:45:14;6.03;;;2.37;;
16669;SDS011;8448;52.034;5.158;2022-11-15T15:47:42;4.33;;;2.20;;
16669;SDS011;8448;52.034;5.158;2022-11-15T15:50:16;2.80;;;2.00;;
16669;SDS011;8448;52.034;5.158;2022-11-15T15:52:47;7.37;;;2.33;;
16669;SDS011;8448;52.034;5.158;2022-11-15T15:55:15;5.80;;;2.03;;
16669;SDS011;8448;52.034;5.158;2022-11-15T15:57:43;3.77;;;1.93;;
16669;SDS011;8448;52.034;5.158;2022-11-15T16:00:11;4.93;;;2.37;;
16669;SDS011;8448;52.034;5.158;2022-11-15T16:02:39;4.07;;;1.70;;
16669;SDS011;8448;52.034;5.158;2022-11-15T16:05:07;5.82;;;2.05;;
16669;SDS011;8448;52.034;5.158;2022-11-15T16:07:35;4.60;;;1.90;;
16669;SDS011;8448;52.034;5.158;2022-11-15T16:10:04;3.33;;;1.77;;
16669;SDS011;8448;52.034;5.158;2022-11-15T16:12:42;4.37;;;1.83;;
16669;SDS011;8448;52.034;5.158;2022-11-15T16:15:09;5.50;;;2.07;;
16669;SDS011;8448;52.034;5.158;2022-11-15T16:17:37;5.53;;;1.80;;
16669;SDS011;8448;52.034;5.158;2022-11-15T16:20:09;3.93;;;2.10;;
16669;SDS011;8448;52.034;5.158;2022-11-15T16:22:50;3.93;;;2.13;;
16669;SDS011;8448;52.034;5.158;2022-11-15T16:25:19;5.07;;;2.20;;
16669;SDS011;8448;52.034;5.158;2022-11-15T16:27:46;6.03;;;2.03;;
16669;SDS011;8448;52.034;5.158;2022-11-15T16:30:14;5.03;;;1.87;;
16669;SDS011;8448;52.034;5.158;2022-11-15T16:32:43;3.87;;;1.70;;
16669;SDS011;8448;52.034;5.158;2022-11-15T16:35:10;3.20;;;1.70;;
16669;SDS011;8448;52.034;5.158;2022-11-15T16:37:38;4.23;;;1.83;;
16669;SDS011;8448;52.034;5.158;2022-11-15T16:40:10;6.53;;;2.33;;
16669;SDS011;8448;52.034;5.158;2022-11-15T16:42:48;3.97;;;1.60;;
16669;SDS011;8448;52.034;5.158;2022-11-15T16:45:16;5.60;;;2.00;;